Terminal Aerodrome Forecast
Issued by NWS

Home | Current Version | Previous Version | Text Only | Print | Product List | Glossary On
Versions: 1 2 3 4 5 6 7 8 9 10 11 12 13 14 15 16 17 18 19 20 21 22 23 24 25 26 27 28 29 30 31 32 33
548
FTUS43 KDLH 171655 AAF
TAFHIB
TAF AMD
KHIB 171655Z 1717/1812 00000KT 3SM BR SKC
     FM171730 VRB02KT P6SM SKC
     FM172000 22004KT P6SM SKC
     FM180500 21005KT P6SM SCT110 WS020/25035KT
     FM181000 21007KT P6SM FEW110=

USA.gov is the U.S. government's official web portal to all federal, state and local government web resources and services.